Atterbury, Illinois
Current Conditions -  °F | °C
As of 6:52 AM on Wednesday 22 Oct 2014 (Local Time) from KSPI Reporting Station
Clear Clear  
Wind Chill: 31°   Ceiling: Unl
Heat Index: 35°   Visibility: 10mi
Dew Point: 33°   Wind: 5mph
Humidity: 92%   Direction: 60°ENE
Pressure: 30.31"   Gusts: NA
Location:  40.0452°N, 89.8548°W
Report Text: KSPI 221152Z 06004KT 10SM CLR 02/01 A3031 RMK AO2 SLP268 T00170006 10056 20017 51016
Loading
Personal Weather Stations






























Interactive Weather Map
Tropical Storm Tracking
New forecast layout! Learn more

10-Day Weather Forecast

Advertisements
Track Severe Weather on mobile